Aérodrome :
LOGIN :

S'inscrire | Disclaimer

   EN    FR    IT 

 










Légende :    VFR   VFR Marginal   IFR   IFR Intensif   IFR Très Intensif
Visi : 
Plafond : 
>= 8 km
>= 3000ft
5 à 8 km
1000 à 3000 ft
1500m à 5 km
500 à 1000 ft
800 à 1500m
200 à 500 ft
< 800m
< 200 ft
Symboles :   Orages  Brouillard  Fortes neiges  Fortes précipitations  Vent > 20 kt
SIGMETs :   Divers  Orages  Givrage  Turbulence  Onde Orograph.  Cendres Volcan.







- Altitude de l'aérodrome : 433 ft
- Code IATA : CCF
- Voir les cartes d'approche


LFMK - Carcassonne

DERNIER METAR :
  • 290330Z AUTO 11009KT 070V150 CAVOK 17/12 Q1014 TEMPO BKN010

METARs EXPIRÉS :
  • 290300Z AUTO 11010KT 080V150 CAVOK 17/12 Q1014 TEMPO BKN010
  • 290230Z AUTO 10012KT 080V140 CAVOK 17/12 Q1014 TEMPO BKN010
  • 290200Z AUTO 10012KT CAVOK 17/12 Q1014
  • 290130Z AUTO 11009KT 080V150 CAVOK 18/12 Q1015
  • 290100Z AUTO 11009KT 080V200 CAVOK 18/12 Q1015

TAF TAF LFMK
Valide du 29 à 03h jusqu'au 30 à 03h UTC


290200Z 2903/3003 09013KT CAVOK
TEMPO 2903/2908 BKN010
BECMG 2921/2923 27010KT
Pas de NOTAMs connus pour ce terrain.
1 SIGMET publié pour la FIR Bordeaux (LFBB) :
 
Orages noyés dans la masse
LFBB SIGMET 2 VALID 290300/290500 LFPW
LFBB BORDEAUX FIR/UIR EMBD TS OBS AT 0300Z W OF LINE N4630 W00045 - N4245 W00100 TOP FL390 MOV N 25KT NC=



MET'MAP, la Météo Aéronautique d'un coup d'oeil ! - Copyright ORBIFLY Décembre 2007 - Disclaimer

ORBIFLY MET'MAP TEAM :

Programmation & Développement : Alexandra Zaïnal
Conception & Développement : Baudouin d'Aumeries
Co-Programmation & Développement : Marc-Olivier Méhu
Soutien technique & logistique : Manuel Goepfert

Contact : metmap@orbifly.com




SOURCES & CREDITS :

   NOAA